ADDS METAR Data INFO
IDs: Format: Raw Decoded Include TAF

Data at: 0036 UTC 23 Oct 2017

KANW 230015Z AUTO 18004KT 10SM CLR 12/03 A2991 RMK AO2 T01170031
KANW 222355Z AUTO 18003KT 10SM CLR 13/02 A2990 RMK AO2 T01300024 10205 20130
KANW 222335Z AUTO 23003KT 10SM CLR 17/01 A2990 RMK AO2 T01700011
KANW 222315Z AUTO 23003KT 10SM CLR 18/02 A2991 RMK AO2 T01750017
KANW 222255Z AUTO 21003KT 10SM CLR 19/02 A2990 RMK AO2 T01880022
KANW 222235Z AUTO 25006KT 10SM CLR 18/01 A2990 RMK AO2 T01830011
KANW 222215Z AUTO 25007KT 10SM CLR 18/00 A2990 RMK AO2 T01840004
KANW 222155Z AUTO 26009KT 10SM CLR 19/00 A2992 RMK AO2 T01910000
KANW 222135Z AUTO 25013G19KT 10SM CLR 21/00 A2992 RMK AO2 T02050000
KANW 222115Z AUTO 26013G18KT 10SM CLR 20/00 A2992 RMK AO2 T02010002
KANW 222055Z AUTO 25015G23KT 10SM CLR 20/00 A2992 RMK AO2 T01951002
KANW 222035Z AUTO 26015G19KT 10SM CLR 20/00 A2993 RMK AO2 T01961001
KANW 222015Z AUTO 26015G19KT 10SM CLR 19/00 A2994 RMK AO2 T01941002
KANW 221955Z AUTO 25016G22KT 10SM CLR 19/00 A2994 RMK AO2 T01911005
KANW 221935Z AUTO 26015G21KT 10SM CLR 19/M01 A2995 RMK AO2 T01901008
KANW 221915Z AUTO 24013G22KT 10SM CLR 19/M01 A2996 RMK AO2 T01851011
KANW 221855Z AUTO 25016G21KT 10SM CLR 18/M01 A2997 RMK AO2 T01791013
KANW 221835Z AUTO 23015G22KT 10SM CLR 18/M02 A2997 RMK AO2 T01761016
KANW 221815Z AUTO 25017KT 10SM CLR 17/M02 A2999 RMK AO2 T01731017
KANW 221755Z AUTO 24020G26KT 10SM CLR 17/M02 A3001 RMK AO2 T01671023 10170 21010
KANW 221735Z AUTO 24017G22KT 10SM CLR 16/M02 A3001 RMK AO2 T01641019
KANW 221715Z AUTO 22015G21KT 10SM CLR 16/M02 A3001 RMK AO2 T01591017
KANW 221655Z AUTO 22012G18KT 10SM CLR 14/M01 A3002 RMK AO2 T01431013
KANW 221635Z AUTO 23014KT 10SM CLR 13/M01 A3003 RMK AO2 T01331015
KANW 221615Z AUTO 23011KT 10SM CLR 13/M01 A3004 RMK AO2 T01261015
KANW 221555Z AUTO 22010KT 10SM CLR 11/M01 A3006 RMK AO2 T01091015
KANW 221535Z AUTO 23011KT 10SM CLR 10/M02 A3006 RMK AO2 T01001018
KANW 221515Z AUTO 23008KT 10SM CLR 08/M01 A3007 RMK AO2 T00841013
KANW 221455Z AUTO 22010KT 10SM CLR 07/M02 A3007 RMK AO2 T00671017
KANW 221435Z AUTO 21008KT 10SM CLR 06/M01 A3006 RMK AO2 T00601010
KANW 221415Z AUTO 22010KT 10SM CLR 04/M02 A3006 RMK AO2 T00411019
KANW 221355Z AUTO 20006KT 10SM CLR 03/M02 A3006 RMK AO2 T00261020
KANW 221335Z AUTO 20003KT 10SM CLR 00/M03 A3006 RMK AO2 T00041028
KANW 221315Z AUTO 20003KT 10SM CLR 00/M03 A3006 RMK AO2 T00001030
KANW 221255Z AUTO 20006KT 10SM CLR 00/M03 A3006 RMK AO2 T00001028
KANW 221235Z AUTO 20006KT 10SM CLR 01/M03 A3007 RMK AO2 T00071026
KANW 221215Z AUTO 22008KT 10SM CLR 01/M03 A3006 RMK AO2 T00111026
KANW 221155Z AUTO 22007KT 10SM CLR 02/M02 A3005 RMK AO2 70001 T00161025 10022 21010
KANW 221135Z AUTO 20006KT 10SM CLR 00/M03 A3005 RMK AO2 T00001028
KANW 221115Z AUTO 19005KT 10SM CLR 00/M03 A3004 RMK AO2 T10041030
KANW 221055Z AUTO 21005KT 10SM CLR 01/M02 A3003 RMK AO2 T00121021
KANW 221035Z AUTO 24006KT 10SM CLR 02/M02 A3004 RMK AO2 T00171017
KANW 221015Z AUTO 24008KT 10SM CLR 02/M01 A3004 RMK AO2 T00151015
KANW 220955Z AUTO 24004KT 10SM CLR 01/M02 A3003 RMK AO2 T00101016
KANW 220935Z AUTO 23003KT 10SM CLR 01/M01 A3004 RMK AO2 T00131015
KANW 220915Z AUTO 23004KT 10SM CLR 01/M01 A3003 RMK AO2 T00101015
KANW 220855Z AUTO 24004KT 10SM CLR 01/M01 A3004 RMK AO2 T00081012
KANW 220835Z AUTO 24004KT 10SM CLR 01/M01 A3004 RMK AO2 T00111012
KANW 220815Z AUTO 23004KT 10SM CLR 01/M01 A3003 RMK AO2 T00141011
KANW 220755Z AUTO 23004KT 10SM CLR 01/M01 A3003 RMK AO2 T00131013
KANW 220735Z AUTO 25005KT 10SM CLR 02/M01 A3003 RMK AO2 T00161012
KANW 220715Z AUTO 25005KT 10SM CLR 02/M01 A3003 RMK AO2 T00191011
KANW 220655Z AUTO 24006KT 10SM CLR 02/M01 A3003 RMK AO2 T00171011
KANW 220635Z AUTO 24006KT 10SM CLR 02/M01 A3002 RMK AO2 T00211010
KANW 220615Z AUTO 23004KT 10SM CLR 00/M02 A3002 RMK AO2 T00011016
KANW 220555Z AUTO 22004KT 10SM CLR 00/M02 A3001 RMK AO2 T00041018 10100 20002 401700002
KANW 220535Z AUTO 00000KT 10SM CLR 02/M01 A3001 RMK AO2 T00161010
KANW 220515Z AUTO 24004KT 10SM CLR 01/M01 A3001 RMK AO2 T00141009
KANW 220455Z AUTO 23004KT 10SM CLR 01/M01 A3001 RMK AO2 T00071014
KANW 220435Z AUTO 22003KT 10SM CLR 01/M01 A3002 RMK AO2 T00071013
KANW 220415Z AUTO 21003KT 10SM CLR 02/M01 A3002 RMK AO2 T00161012
KANW 220355Z AUTO 24005KT 10SM CLR 03/M01 A3001 RMK AO2 T00271007
KANW 220335Z AUTO 26005KT 10SM CLR 03/M01 A2999 RMK AO2 T00331009
KANW 220315Z AUTO 27005KT 10SM CLR 05/M01 A2998 RMK AO2 T00451006
KANW 220255Z AUTO 27004KT 10SM CLR 04/00 A2999 RMK AO2 T00431005
KANW 220235Z AUTO 27003KT 10SM CLR 05/00 A2999 RMK AO2 T00460000
KANW 220215Z AUTO 28004KT 10SM CLR 05/00 A2998 RMK AO2 T00500000
KANW 220155Z AUTO 28005KT 10SM CLR 05/00 A2998 RMK AO2 T00500000
KANW 220135Z AUTO 27003KT 10SM CLR 06/00 A2998 RMK AO2 T00620001
KANW 220115Z AUTO 27004KT 10SM CLR 07/00 A2997 RMK AO2 T00730001
KANW 220055Z AUTO 28003KT 10SM CLR 08/00 A2997 RMK AO2 T00800000
KANW 220035Z AUTO 30003KT 10SM CLR 08/00 A2996 RMK AO2 LTG DSNT E T00810000
KANW 220015Z AUTO 00000KT 10SM CLR 08/00 A2994 RMK AO2 T00830000
KANW 212355Z AUTO 28003KT 10SM CLR 10/00 A2994 RMK AO2 T01010000 10139 20075
KANW 212335Z AUTO 29005KT 10SM CLR 12/00 A2992 RMK AO2 T01181002
KANW 212315Z AUTO 30007KT 10SM CLR 13/M01 A2991 RMK AO2 T01301007
KANW 212255Z AUTO 29007KT 10SM CLR 13/00 A2990 RMK AO2 T01341005
KANW 212235Z AUTO 31009KT 10SM CLR 14/M01 A2990 RMK AO2 T01361014
KANW 212215Z AUTO 32016G20KT 10SM CLR 14/M01 A2989 RMK AO2 T01371013
KANW 212155Z AUTO 32015G20KT 10SM SCT070 14/M01 A2988 RMK AO2 T01381013
KANW 212135Z AUTO 32015G19KT 10SM CLR 14/M01 A2988 RMK AO2 T01371007
KANW 212115Z AUTO 30015G22KT 10SM CLR 14/M01 A2987 RMK AO2 T01351006
KANW 212055Z AUTO 31012G21KT 10SM SCT050 13/00 A2987 RMK AO2 T01310000
KANW 212035Z AUTO 31015G24KT 10SM CLR 13/01 A2985 RMK AO2 T01300012
KANW 212015Z AUTO 31015G22KT 10SM CLR 13/02 A2985 RMK AO2 T01260021
KANW 211955Z AUTO 31018G23KT 10SM CLR 12/02 A2985 RMK AO2 T01190022
KANW 211935Z AUTO 32012G20KT 10SM CLR 11/03 A2985 RMK AO2 T01110034
KANW 211915Z AUTO 33012KT 10SM SCT090 10/05 A2984 RMK AO2 T01020049
KANW 211855Z AUTO 32011G17KT 10SM SCT060 SCT070 OVC090 09/05 A2983 RMK AO2 T00850048
KANW 211835Z AUTO 32011KT 10SM -DZ OVC060 08/06 A2985 RMK AO2 T00790055
KANW 211815Z AUTO 31010G19KT 10SM -DZ OVC065 08/05 A2985 RMK AO2 T00750051
KANW 211755Z AUTO 30014G20KT 10SM -RA SCT065 OVC080 08/06 A2985 RMK AO2 P0001 60001 T00750056 10130 20068
KANW 211735Z AUTO 31009KT 10SM -DZ BKN080 OVC085 07/05 A2985 RMK AO2 T00700054
KANW 211715Z AUTO 32011G18KT 10SM -RA BKN065 OVC075 07/05 A2983 RMK AO2 T00680050
KANW 211655Z AUTO 32016G24KT 10SM -RA SCT055 OVC070 07/05 A2983 RMK AO2 T00700045
KANW 211635Z AUTO 32017G23KT 10SM SCT050 OVC070 08/04 A2982 RMK AO2 T00760040
KANW 211615Z AUTO 32015G24KT 10SM SCT050 OVC070 08/04 A2982 RMK AO2 T00800037
KANW 211555Z AUTO 32021G28KT 10SM OVC060 08/03 A2980 RMK AO2 T00840031
KANW 211535Z AUTO 32023G29KT 10SM OVC060 09/03 A2978 RMK AO2 T00910031
KANW 211515Z AUTO 31016G26KT 10SM BKN050 OVC060 10/03 A2978 RMK AO2 T00950030
KANW 211455Z AUTO 31020G28KT 10SM SCT050 BKN060 OVC100 10/04 A2975 RMK AO2 T00980035
KANW 211435Z AUTO 32022G31KT 10SM SCT075 BKN095 10/04 A2971 RMK AO2 T01000036
KANW 211415Z AUTO 32016G33KT 10SM SCT095 10/04 A2970 RMK AO2 T01010038
KANW 211355Z AUTO 32023G30KT 10SM CLR 10/04 A2968 RMK AO2 T01000039
KANW 211335Z AUTO 32019G30KT 10SM CLR 10/04 A2964 RMK AO2 T01000036
KANW 211315Z AUTO 33021G27KT 10SM CLR 11/04 A2962 RMK AO2 T01100038
KANW 211255Z AUTO 33019G25KT 10SM CLR 11/04 A2960 RMK AO2 T01140040